Tropical Cyclones
[Index]
Main Index Home Page Stock Weather Photos Extreme Storms Discussion Storm News and Storm Chasing Reports Tropical Cyclones / Hurricanes / Typhoons Weather Data and Links Wild Fires / Bushfires Weather Observation Techniques Weather Picture Catalogue Tornado Pictures and Reports Stock Video Footage and DVDs for sale
Season 2000-2001 Tropical Cyclone TERRI Track Map
Season 2000-2001 Summaries: [BoM-AU] [JTWC-AU] [JTWC-SIO] [JTWC-SPAC] [JTWC-SH]
<<- Previous TC | BoM 2000-2001 Season | Next TC ->>

click for intensity scale information  Lat/long Grid: Show Hide

 Date Labels: Show Hide

Bureau of Meteorology Tropical Cyclone Data

Name: TERRI
Number: 844 / 200001_02

28 Jan 2001 04:00 UTC to 31 Jan 2001 22:00 UTC

    date/time    lat    long    hPa   cat  kts
2001-01-28 04   14.2   124.8   1002         25          
2001-01-28 10   14.6   124.2   1001         25          
2001-01-28 16   15.1   123.5   1000         25          
2001-01-28 22   15.5   122.8    998         30          
2001-01-29 04   15.7   122.1    996         30          
2001-01-29 10   15.9   121.6    994    1    35          
2001-01-29 16   16.0   121.2    992    1    40          
2001-01-29 22   16.3   120.8    988    1    45          
2001-01-30 01   16.6   120.4    985    2    50          
2001-01-30 04   17.0   120.0    980    2    55          
2001-01-30 07   17.4   119.6    975    2    60          
2001-01-30 10   17.9   119.3    975    2    60          
2001-01-30 13   18.3   119.2    975    2    60          
2001-01-30 16   18.7   119.1    975    2    60          
2001-01-30 19   19.0   119.1    975    2    60          
2001-01-30 22   19.3   119.3    980    2    60          
2001-01-31 01   19.9   119.6    980    2    60          
2001-01-31 04   20.5   119.9    980    2    60          
2001-01-31 07   21.4   120.2    985    2    50          
2001-01-31 10   22.3   120.5    985    2    45          
2001-01-31 13   23.1   120.8    990    1    40          
2001-01-31 16   23.9   121.1    990    1    40          
2001-01-31 19   24.8   121.4    990    1    35          
2001-01-31 22   25.8   122.0    990    1    30          
Winds are 10-min average.

Tropical cyclone tracks developed by Michael Bath using data from the Bureau of Meteorology and Google Maps.


[Australian Severe Weather index] [Copyright Notice] [Email Contacts] [Search This Site] [Privacy Policy]
Document: tropical_cyclone_terri.htm Updated: 29 June 2017